Sacramento, CA (94287)

1:40 PM PDT on September 18, 2014 (GMT -0700)
MIDTOWN | Change Station
CLOSE
Current Station
Personal Weather Station
Location: SACRAMENTO, CA
Elevation: 24 ft
Nearby Weather Stations

Elev 24 ft 38.57 °N, 121.48 °W | Updated 1 second ago

Mostly Cloudy
Mostly Cloudy
78.3 °F
Feels Like 80 °F
N
0.4
Wind Variable Wind from SSE
Gusts 2.5 mph

Today
High -- | Low -- °F
--% Chance of Precip.
Yesterday
High -- | Low -- °F
Precip. -- in
6:50 AM 7:09 PM
Waning Crescent, 24% visible
Pressure 29.86 in
Visibility 10.0 miles
Clouds Few 3600 ft
Overcast 5500 ft
Heat Index 80 °F
Dew Point 60 °F
Humidity 53%
Rainfall 0.00 in
Snow Depth 0 in , 0 in , 0 in
UV 1.0 out of 12
Pollen 5.40 out of 12
Ozone Good
PM2.5 Good
Flu Activity Not available.
METAR KSAC 181953Z 28006KT 10SM FEW036 OVC055 26/16 A2986 RMK AO2 SLP111 T02560161

More Conditions Fewer Conditions

Pressure 29.86 in
Visibility 10.0 miles
Clouds Few 3600 ft
Overcast 5500 ft
Heat Index 80 °F
Dew Point 60 °F
Humidity 53%
Rainfall 0.00 in
Snow Depth 0 in , 0 in , 0 in
UV 1.0 out of 12
Pollen 5.40 out of 12
Ozone Good
PM2.5 Good
Flu Activity Not available.
METAR KSAC 181953Z 28006KT 10SM FEW036 OVC055 26/16 A2986 RMK AO2 SLP111 T02560161

More Conditions Fewer Conditions

10-Day Weather Forecast

Almanac

Astronomy

Sep. 18, 2014 Rise Set
Actual Time 6:50 AM PDT 7:09 PM PDT
Civil Twilight 6:23 AM PDT 7:35 PM PDT
Nautical Twilight 5:52 AM PDT 8:06 PM PDT
Astronomical Twilight 5:20 AM PDT 8:38 PM PDT
Moon 1:49 AM PDT 4:01 PM PDT
Length of Visible Light 13h 12m
Length of Day
12h 18m
Tomorrow will be 2m 29s shorter.
Waning Crescent, 24% of the Moon is Illuminated
Today
Waning Crescent
Sep 24
New
Oct 1
First Quarter
Oct 8
Full
Oct 15
Last Quarter

Today's Extremes

State Highs State Lows

Community

WunderPhotos

Upload Photos

1,754,430 photos uploaded!

WunderBlogs® & News

By Dr. Jeff Masters
Director of Meteorology, Weather Underground
By Kari Strenfel
Meteorologist, Weather Underground
By Christopher C. Burt
Weather Historian, Weather Underground
September 18, 2014
September 18, 2014
September 18, 2014

Nearby

Air Quality

  Air Quality AQ Index Pollutant
Yesterday Good
OZONE
Yesterday Good
PM10
Current Good
OZONE
Current Good
PM2.5
Thursday Good
OZONE
Friday Moderate
OZONE
Saturday Moderate
OZONE
Sunday Moderate
OZONE
Monday Moderate
OZONE
Tuesday Moderate
OZONE

Snow Depth

Station Depth Elevation
Crowder Flat 0 in 5100 ft
Adin Mountain 0 in 6200 ft
Burnside Lake 0 in 8139 ft
Forestdale Creek 0 in 8029 ft
Summit Meadow 0 in 9122 ft

Earthquake Activity

City Distance Mag. Time & Date
The Geysers, California 67 miles 2.5 11:29 PM PDT
2014-09-17
Cobb, California 67 miles 2.7 1:23 PM PDT
2014-09-16
Minimum magnitude displayed is 2.5.

Coastal Water Temperatures

Place Temperature
No Stations Reporting

Nearby Weather Stations